Valcourt, Canada
Current Conditions -  °F | °C
As of 12:00 PM on Wednesday 26 Nov 2014 (Local Time) from CYSC Reporting Station
Overcast Overcast  
Wind Chill: 32°   Ceiling: 12000
Heat Index: 32°   Visibility: 9mi
Dew Point: 21°   Wind: 2mph
Humidity: 64%   Direction: NA
Pressure: 30.15"   Gusts: NA
Location:  45.48°N, 72.32°W
Report Text: CYSC 261700Z AUTO VRB02KT 9SM OVC120 M00/M06 A3015 RMK PRESFR SLP221
Loading
Personal Weather Stations






























Interactive Weather Map New forecast layout! Learn more

10-Day Weather Forecast

Advertisements
Track Severe Weather on mobile